Relevés horaires Matro (Suisse)


Relevés horaires à Matro - Mardi 23 Déc. 2014
Heure UTC1 Température [°C] Vent [km/h] Hum. [%] Pres.4 [hPa] Visi. [Km] Nébu. [octa] Préc.5 [mm] Cond.
2m. Res. Ros. Dir.2 Vit. Moy. Raf.3
23:00 6.0 2.7 -21.6 SSE 16.7 18.5 27.8 12 850(-0.5/3h) -- -- -- --
22:00 6.3 3.7 -21.9 SE 13.0 13.0 22.2 11 850(-0.5/3h) -- -- -- --
21:00 6.2 3.9 -20.7 ESE 11.1 18.5 20.4 12 850(-0.5/3h) -- -- -- --
20:00 5.5 3 -19.5 ESE 11.1 11.1 16.7 14 850(-0.4/3h) -- -- -- --
19:00 5.9 4.9 -21.5 ESE 5.6 5.6 9.3 12 850(-0.3/3h) -- -- -- --
18:00 5.8 5.8 -19.6 OSO 1.9 9.3 16.7 14 850(-0.4/3h) -- -- -- --
17:00 6.4 4.9 -19.9 O 7.4 9.3 13.0 13 850(-0.3/3h) -- -- -- --
16:00 6.6 6.6 -18.7 S 1.9 7.4 13.0 14 850(-0.4/3h) -- -- -- --
15:00 6.6 5.7 -14.7 SSO 5.6 7.4 16.7 20 850(-0.6/3h) -- -- -- --
14:00 7.2 5.9 -18.7 O 7.4 7.4 16.7 14 850(-1.0/3h) -- -- -- --
13:00 7.1 5.7 -18.2 ONO 7.4 7.4 14.8 14 850(-1.0/3h) -- -- -- --
12:00 7.6 7.6 -14.9 S 3.7 22.2 25.9 18 850(-0.4/3h) -- -- -- --
11:00 7.9 7.2 -15.0 SSO 5.6 5.6 13.0 18 850(0.0/3h) -- -- -- --
10:00 7.0 5.6 -17.2 O 7.4 14.8 16.7 16 850(0.4/3h) -- -- -- --
09:00 6.9 4.1 -24.9 NO 14.8 22.2 25.9 8 850(0.2/3h) -- -- -- --
08:00 6.3 2.5 -25.0 NNO 22.2 22.2 25.9 8 850(0.5/3h) -- -- -- --
07:00 5.8 2.5 -24.4 NNO 16.7 18.5 22.2 9 850(0.3/3h) -- -- -- --
06:00 6.0 3 -24.3 NO 14.8 18.5 27.8 9 850(0.1/3h) -- -- -- --
05:00 5.7 2.4 -22.3 NO 16.7 18.5 27.8 11 850(-0.4/3h) -- -- -- --
04:00 5.9 2.4 -21.9 NO 18.5 18.5 22.2 11 850(-0.3/3h) -- -- -- --
03:00 5.9 2.9 -20.5 NNO 14.8 16.7 20.4 13 850(-0.1/3h) -- -- -- --
02:00 6.0 3.3 -20.6 NNO 13.0 14.8 18.5 13 850(-0.2/3h) -- -- -- --
01:00 6.1 3.4 -20.1 NNO 13.0 16.7 20.4 13 850(-0.3/3h) -- -- -- --
00:00 5.6 2 -19.3 NO 18.5 24.1 29.6 15 850(-0.3/3h) -- -- -- --

1 Coordinated Universal Time. Actuellement il est 13:00 locale et 11:00 UTC.

2 Le vent souffle depuis la direction indiquée vers la direction oposée.

3 Les rafales max. sont disponible 40 min après l'heure du relevé.

4 Pour les stations d'altitude (plus de 600m) le géopotentiel du niveau le plus proche de la pression obligatoire est indiqué.

5 Les stations disposant d'un diffuseur peuvent indiquer "trace". Cela signifie que des précipitations ont touchés le sol mais que la quantité est inférieure à 0.1 mm.

Copyright

Les données affichées sur cette page sont la propriété exclusive de Météo Suisse.

Récapitulatif de la journée
Température [°C] Vent [km/h] Ensoleillement4 [h] Precipitations totale5 [mm] Pression [Hpa]
Min1 Max.2 Moy.3 Max. Min Max.
5.6 7.9 14.5 29.6 7 h 12 min 0 850.0 850.0

1 Température minimale relevée entre 18:00 UTC la veille et 18:00 UTC le jour donné.

2 Température maximale relevée entre 06:00 UTC le jour donné et 06:00 UTC le lendemain.

3 Vent moyen de la journée basé sur les relevés horaires.

4 Ensoleillement en heures relevé entre 06:00 UTC la veille et 06:00 UTC le jour donné.

5 Précipitations totales tombées entre 06:00 UTC la jour donné et 06:00 UTC le lendemain.

Graphiques horaires